createdAt,value
2017-11-12T00:00:41.902Z,11.45
2017-11-12T00:01:51.990Z,11.49
2017-11-12T00:03:02.392Z,11.53
2017-11-12T00:04:12.795Z,11.46
2017-11-12T00:05:22.887Z,11.49
2017-11-12T00:06:32.962Z,11.64
2017-11-12T00:07:43.096Z,11.7
2017-11-12T00:08:53.514Z,11.67
2017-11-12T00:10:03.942Z,11.71
2017-11-12T00:11:13.700Z,11.67
2017-11-12T00:12:23.793Z,11.7
2017-11-12T00:13:34.218Z,11.76
2017-11-12T00:14:44.652Z,11.78
2017-11-12T00:15:54.760Z,11.71
2017-11-12T00:17:04.548Z,11.63
2017-11-12T00:18:14.629Z,11.67
2017-11-12T00:19:24.704Z,11.64
2017-11-12T00:20:35.118Z,11.66
2017-11-12T00:21:45.228Z,11.67
2017-11-12T00:22:55.310Z,11.66
2017-11-12T00:24:05.442Z,11.81
2017-11-12T00:25:15.887Z,11.81
2017-11-12T00:26:25.956Z,11.84
2017-11-12T00:27:36.060Z,11.73
2017-11-12T00:28:46.476Z,11.82
2017-11-12T00:29:56.905Z,11.76
2017-11-12T00:31:07.315Z,11.78
2017-11-12T00:32:17.733Z,11.82
2017-11-12T00:33:27.823Z,11.89
2017-11-12T00:34:38.248Z,11.89
2017-11-12T00:35:48.662Z,12.08
2017-11-12T00:36:58.749Z,12.05
2017-11-12T00:38:09.180Z,12.11
2017-11-12T00:39:19.248Z,12.16
2017-11-12T00:40:29.328Z,12.15
2017-11-12T00:41:39.407Z,12.18
2017-11-12T00:42:49.898Z,12.36
2017-11-12T00:44:00.305Z,12.29
2017-11-12T00:45:10.397Z,12.38
2017-11-12T00:46:20.459Z,12.45
2017-11-12T00:47:30.540Z,12.53
2017-11-12T00:48:40.640Z,12.47
2017-11-12T00:49:51.061Z,12.48
2017-11-12T00:51:00.830Z,12.51
2017-11-12T00:52:11.257Z,12.51
2017-11-12T00:53:21.718Z,12.55
2017-11-12T00:54:31.948Z,12.56
2017-11-12T00:55:42.394Z,12.56
2017-11-12T00:56:52.786Z,12.58
2017-11-12T00:58:02.863Z,12.58
2017-11-12T00:59:12.631Z,12.62
2017-11-12T01:00:22.757Z,12.66
2017-11-12T01:01:33.175Z,12.69
2017-11-12T01:02:43.656Z,12.66
2017-11-12T01:03:54.064Z,12.78
2017-11-12T01:05:04.476Z,12.76
2017-11-12T01:06:15.483Z,12.73
2017-11-12T01:07:25.483Z,12.74
2017-11-12T01:08:35.223Z,12.86
2017-11-12T01:09:45.865Z,12.83
2017-11-12T01:10:55.961Z,12.89
2017-11-12T01:12:05.831Z,12.84
2017-11-12T01:13:16.905Z,12.8
2017-11-12T01:14:27.008Z,12.88
2017-11-12T01:15:37.419Z,12.91
2017-11-12T01:16:47.826Z,12.89
2017-11-12T01:17:57.886Z,12.89
2017-11-12T01:19:07.975Z,12.91
2017-11-12T01:20:17.716Z,12.91
2017-11-12T01:21:28.114Z,13.03
2017-11-12T01:22:38.178Z,12.98
2017-11-12T01:23:47.930Z,13.01
2017-11-12T01:24:58.347Z,12.98
2017-11-12T01:26:08.817Z,12.99
2017-11-12T01:27:18.568Z,13.02
2017-11-12T01:28:28.667Z,13.01
2017-11-12T01:29:39.079Z,13.06
2017-11-12T01:30:49.194Z,13.14
2017-11-12T01:31:59.657Z,13.17
2017-11-12T01:33:10.076Z,13.14
2017-11-12T01:34:20.157Z,13.21
2017-11-12T01:35:30.571Z,13.25
2017-11-12T01:36:40.641Z,13.32
2017-11-12T01:37:50.403Z,13.29
2017-11-12T01:39:00.506Z,13.28
2017-11-12T01:40:10.935Z,13.35
2017-11-12T01:41:21.382Z,13.32
2017-11-12T01:42:31.792Z,13.28
2017-11-12T01:43:41.869Z,13.28
2017-11-12T01:44:52.272Z,13.29
2017-11-12T01:46:02.695Z,13.27
2017-11-12T01:47:12.760Z,13.27
2017-11-12T01:48:22.889Z,13.28
2017-11-12T01:49:33.366Z,13.25
2017-11-12T01:50:43.474Z,13.19
2017-11-12T01:51:53.887Z,13.2
2017-11-12T01:53:03.988Z,13.24
2017-11-12T01:54:14.427Z,13.13
2017-11-12T01:55:24.523Z,13.2
2017-11-12T01:56:34.608Z,13.16
2017-11-12T01:57:44.349Z,13.11
2017-11-12T01:58:54.794Z,13.14
2017-11-12T02:00:05.210Z,13.02
2017-11-12T02:01:15.330Z,12.98
2017-11-12T02:02:25.408Z,12.89
2017-11-12T02:03:35.821Z,12.83
2017-11-12T02:04:45.882Z,12.7
2017-11-12T02:05:56.291Z,12.77
2017-11-12T02:07:06.379Z,12.71
2017-11-12T02:08:16.122Z,12.65
2017-11-12T02:09:26.195Z,12.65
2017-11-12T02:10:36.274Z,12.56
2017-11-12T02:11:46.383Z,12.55
2017-11-12T02:12:56.188Z,12.53
2017-11-12T02:14:05.954Z,12.51
2017-11-12T02:15:16.029Z,12.53
2017-11-12T02:16:26.439Z,12.44
2017-11-12T02:17:36.513Z,12.41
2017-11-12T02:18:46.596Z,12.44
2017-11-12T02:19:56.676Z,12.48
2017-11-12T02:21:06.766Z,12.44
2017-11-12T02:22:17.204Z,12.43
2017-11-12T02:23:27.328Z,12.41
2017-11-12T02:24:37.158Z,12.41
2017-11-12T02:25:47.569Z,12.38
2017-11-12T02:26:58.006Z,12.34
2017-11-12T02:28:08.421Z,12.31
2017-11-12T02:29:18.512Z,12.26
2017-11-12T02:30:28.970Z,12.36
2017-11-12T02:31:39.034Z,12.33
2017-11-12T02:32:49.106Z,12.33
2017-11-12T02:33:59.190Z,12.19
2017-11-12T02:35:09.270Z,12.2
2017-11-12T02:36:19.355Z,12.11
2017-11-12T02:37:29.794Z,12.16
2017-11-12T02:38:40.207Z,12.13
2017-11-12T02:39:50.293Z,12.16
2017-11-12T02:41:00.021Z,12.13
2017-11-12T02:42:10.453Z,12.18
2017-11-12T02:43:20.522Z,12.18
2017-11-12T02:44:30.937Z,12.23
2017-11-12T02:45:41.018Z,12.19
2017-11-12T02:46:51.435Z,12.25
2017-11-12T02:48:01.561Z,12.25
2017-11-12T02:49:12.010Z,12.2
2017-11-12T02:50:22.075Z,12.23
2017-11-12T02:51:32.490Z,12.34
2017-11-12T02:52:42.595Z,12.26
2017-11-12T02:53:53.020Z,12.34
2017-11-12T02:55:03.412Z,12.25
2017-11-12T02:56:13.828Z,12.22
2017-11-12T02:57:23.916Z,12.22
2017-11-12T02:58:34.332Z,12.16
2017-11-12T02:59:44.418Z,12.31
2017-11-12T03:00:54.887Z,12.38
2017-11-12T03:02:04.672Z,12.26
2017-11-12T03:33:13.578Z,9.67
2017-11-12T03:34:23.991Z,9.62
2017-11-12T03:35:34.394Z,9.59
2017-11-12T03:36:44.467Z,9.55
2017-11-12T03:37:54.563Z,9.66
2017-11-12T03:39:04.983Z,9.8
2017-11-12T03:40:15.037Z,9.89
2017-11-12T03:41:25.453Z,9.88
2017-11-12T03:42:35.878Z,9.99
2017-11-12T03:43:45.951Z,10.17
2017-11-12T03:44:56.042Z,10.25
2017-11-12T03:46:06.119Z,10.36
2017-11-12T03:47:16.538Z,10.49
2017-11-12T03:48:27.909Z,10.67
2017-11-12T03:49:38.014Z,10.69
2017-11-12T03:50:48.417Z,10.85
2017-11-12T03:51:58.835Z,10.77
2017-11-12T03:53:08.916Z,10.92
2017-11-12T03:54:18.989Z,10.92
2017-11-12T03:55:28.740Z,10.94
2017-11-12T03:56:38.844Z,11.06
2017-11-12T03:57:48.932Z,11.05
2017-11-12T03:58:58.675Z,11.08
2017-11-12T04:00:09.091Z,11.15
2017-11-12T04:01:19.506Z,11.1
2017-11-12T04:02:29.301Z,11.2
2017-11-12T04:03:39.376Z,11.18
2017-11-12T04:04:49.798Z,11.27
2017-11-12T04:05:59.890Z,11.33
2017-11-12T04:07:09.963Z,11.33
2017-11-12T04:08:20.040Z,11.42
2017-11-12T04:09:30.455Z,11.38
2017-11-12T04:10:40.200Z,11.41
2017-11-12T04:11:50.614Z,11.46
2017-11-12T04:13:00.685Z,11.52
2017-11-12T04:14:11.096Z,11.53
2017-11-12T04:15:21.518Z,11.49
2017-11-12T04:16:31.593Z,11.53
2017-11-12T04:17:42.041Z,11.57
2017-11-12T04:18:52.110Z,11.49
2017-11-12T04:20:02.517Z,11.53
2017-11-12T04:21:12.592Z,11.64
2017-11-12T04:22:23.000Z,11.61
2017-11-12T04:23:32.731Z,11.48
2017-11-12T04:24:42.823Z,11.56
2017-11-12T04:25:52.899Z,11.61
2017-11-12T04:27:02.993Z,11.6
2017-11-12T04:28:13.069Z,11.57
2017-11-12T04:29:22.820Z,11.64
2017-11-12T04:30:32.906Z,11.64
2017-11-12T04:31:42.977Z,11.61
2017-11-12T04:32:53.394Z,11.61
2017-11-12T04:34:03.462Z,11.63
2017-11-12T04:35:13.883Z,11.7
2017-11-12T04:36:24.274Z,11.66
2017-11-12T04:37:34.395Z,11.66
2017-11-12T04:38:44.825Z,11.71
2017-11-12T04:39:54.565Z,11.61
2017-11-12T04:41:04.649Z,11.63
2017-11-12T04:42:15.061Z,11.66
2017-11-12T04:43:25.199Z,11.64
2017-11-12T04:44:35.592Z,11.66
2017-11-12T04:45:45.684Z,11.68
2017-11-12T04:46:56.105Z,11.7
2017-11-12T04:48:06.523Z,11.7
2017-11-12T04:49:16.604Z,11.67
2017-11-12T04:50:26.736Z,11.67
2017-11-12T04:51:37.147Z,11.71
2017-11-12T04:52:46.890Z,11.67
2017-11-12T04:53:56.961Z,11.68
2017-11-12T04:55:07.413Z,11.7
2017-11-12T04:56:17.519Z,11.7
2017-11-12T04:57:27.593Z,11.68
2017-11-12T04:58:37.677Z,11.68
2017-11-12T04:59:47.767Z,11.67
2017-11-12T05:00:57.851Z,11.71
2017-11-12T05:02:07.580Z,11.6
2017-11-12T05:03:17.335Z,11.66
2017-11-12T05:04:27.759Z,11.68
2017-11-12T05:05:37.856Z,11.7
2017-11-12T05:06:48.337Z,11.75
2017-11-12T05:07:58.748Z,11.7
2017-11-12T05:09:09.185Z,11.7
2017-11-12T05:10:19.587Z,11.66
2017-11-12T05:11:29.672Z,11.61
2017-11-12T05:12:40.134Z,11.75
2017-11-12T05:13:50.248Z,11.73
2017-11-12T05:15:00.657Z,11.76
2017-11-12T05:16:10.749Z,11.71
2017-11-12T05:17:20.857Z,11.75
2017-11-12T05:18:31.313Z,11.75
2017-11-12T05:19:41.752Z,11.7
2017-11-12T05:20:51.842Z,11.78
2017-11-12T05:22:01.919Z,11.71
2017-11-12T05:23:12.340Z,11.71
2017-11-12T05:24:22.138Z,11.78
2017-11-12T05:25:32.564Z,11.73
2017-11-12T05:26:43.003Z,11.73
2017-11-12T05:27:52.772Z,11.68
2017-11-12T05:29:03.183Z,11.71
2017-11-12T05:30:13.266Z,11.68
2017-11-12T05:31:23.341Z,11.73
2017-11-12T05:32:33.780Z,11.68
2017-11-12T05:33:44.206Z,11.64
2017-11-12T05:34:54.653Z,11.51
2017-11-12T05:36:04.453Z,11.59
2017-11-12T05:37:13.853Z,11.52
2017-11-12T05:38:24.258Z,11.46
2017-11-12T05:39:34.667Z,11.51
2017-11-12T05:40:44.750Z,11.49
2017-11-12T05:41:54.828Z,11.53
2017-11-12T05:43:04.920Z,11.53
2017-11-12T05:44:15.341Z,11.56
2017-11-12T05:45:25.414Z,11.49
2017-11-12T05:46:35.498Z,11.48
2017-11-12T05:47:45.564Z,11.42
2017-11-12T05:48:55.645Z,11.42
2017-11-12T05:50:05.701Z,11.35
2017-11-12T05:51:15.442Z,11.39
2017-11-12T05:52:25.873Z,11.35
2017-11-12T05:53:36.275Z,11.33
2017-11-12T05:54:46.706Z,11.28
2017-11-12T05:55:56.773Z,11.38
2017-11-12T05:57:06.853Z,11.31
2017-11-12T05:58:16.956Z,11.39
2017-11-12T05:59:27.355Z,11.38
2017-11-12T06:00:37.821Z,11.42
2017-11-12T06:01:48.253Z,11.41
2017-11-12T06:02:58.651Z,11.38
2017-11-12T06:04:09.059Z,11.33
2017-11-12T06:05:19.174Z,11.38
2017-11-12T06:06:28.594Z,11.39
2017-11-12T06:07:38.658Z,11.42
2017-11-12T06:08:48.724Z,11.39
2017-11-12T06:09:58.801Z,11.42
2017-11-12T06:11:09.214Z,11.35
2017-11-12T06:12:18.961Z,11.39
2017-11-12T06:13:28.697Z,11.43
2017-11-12T06:14:39.097Z,11.41
2017-11-12T06:15:49.500Z,11.38
2017-11-12T06:16:59.577Z,11.38
2017-11-12T06:18:09.989Z,11.35
2017-11-12T06:19:20.409Z,11.39
2017-11-12T06:20:30.538Z,11.35
2017-11-12T06:21:40.218Z,11.35
2017-11-12T06:22:50.625Z,11.42
2017-11-12T06:24:01.061Z,11.46
2017-11-12T06:25:11.463Z,11.43
2017-11-12T06:26:21.203Z,11.45
2017-11-12T06:27:31.618Z,11.52
2017-11-12T06:28:42.031Z,11.51
2017-11-12T06:29:52.480Z,11.48
2017-11-12T06:31:02.229Z,11.51
2017-11-12T06:32:12.630Z,11.51
2017-11-12T06:33:22.691Z,11.48
2017-11-12T06:34:33.108Z,11.51
2017-11-12T06:35:42.843Z,11.6
2017-11-12T06:36:52.913Z,11.68
2017-11-12T06:38:02.995Z,11.68
2017-11-12T06:39:12.767Z,11.67
2017-11-12T06:40:23.244Z,11.67
2017-11-12T06:41:33.650Z,11.7
2017-11-12T06:42:44.062Z,11.81
2017-11-12T06:43:53.811Z,11.78
2017-11-12T06:45:04.225Z,11.82
2017-11-12T06:46:14.700Z,11.88
2017-11-12T06:47:25.113Z,12.01
2017-11-12T06:48:35.201Z,12.08
2017-11-12T06:49:45.270Z,12.07
2017-11-12T06:50:55.672Z,12.15
2017-11-12T06:52:05.804Z,12.19
2017-11-12T06:53:15.894Z,12.18
2017-11-12T06:54:25.982Z,12.26
2017-11-12T06:55:36.393Z,12.37
2017-11-12T06:56:46.467Z,12.25
2017-11-12T06:57:56.592Z,12.29
2017-11-12T06:59:06.685Z,12.28
2017-11-12T07:00:16.432Z,12.34
2017-11-12T07:01:26.829Z,12.33
2017-11-12T07:02:36.944Z,12.37
2017-11-12T07:03:47.399Z,12.31
2017-11-12T07:04:57.841Z,12.29
2017-11-12T07:06:07.955Z,12.28
2017-11-12T07:07:18.367Z,12.4
2017-11-12T07:08:28.784Z,12.31
2017-11-12T07:09:39.247Z,12.37
2017-11-12T07:10:49.664Z,12.31
2017-11-12T07:11:59.731Z,12.47
2017-11-12T07:13:10.138Z,12.47
2017-11-12T07:14:20.562Z,12.43
2017-11-12T07:15:31.016Z,12.41
2017-11-12T07:16:41.436Z,12.52
2017-11-12T07:17:51.505Z,12.52
2017-11-12T07:19:01.960Z,12.48
2017-11-12T07:20:11.723Z,12.56
2017-11-12T07:21:21.874Z,12.62
2017-11-12T07:22:32.305Z,12.58
2017-11-12T07:23:42.718Z,12.62
2017-11-12T07:24:53.139Z,12.8
2017-11-12T07:26:03.561Z,12.78
2017-11-12T07:27:13.662Z,12.89
2017-11-12T07:28:24.092Z,12.86
2017-11-12T07:29:34.148Z,12.88
2017-11-12T07:30:44.218Z,12.91
2017-11-12T07:31:54.630Z,12.84
2017-11-12T07:33:04.731Z,12.76
2017-11-12T07:34:14.809Z,12.81
2017-11-12T07:35:25.234Z,12.84
2017-11-12T07:36:35.629Z,12.81
2017-11-12T07:37:46.033Z,12.81
2017-11-12T07:38:56.151Z,12.89
2017-11-12T07:40:06.576Z,12.78
2017-11-12T07:41:16.649Z,12.84
2017-11-12T07:42:26.721Z,12.91
2017-11-12T07:43:36.501Z,13.06
2017-11-12T07:44:46.591Z,12.98
2017-11-12T07:45:57.031Z,12.99
2017-11-12T07:47:07.447Z,13.02
2017-11-12T07:48:17.208Z,12.91
2017-11-12T07:49:26.950Z,12.89
2017-11-12T07:50:37.088Z,12.91
2017-11-12T07:51:47.164Z,12.8
2017-11-12T07:52:57.575Z,12.95
2017-11-12T07:54:07.983Z,12.99
2017-11-12T07:55:18.390Z,13.17
2017-11-12T07:56:28.793Z,13.25
2017-11-12T07:57:38.869Z,13.29
2017-11-12T07:58:48.945Z,13.35
2017-11-12T07:59:59.354Z,13.36
2017-11-12T08:01:09.748Z,13.24
2017-11-12T08:02:19.887Z,13.31
2017-11-12T08:03:29.968Z,13.31
2017-11-12T08:04:40.397Z,13.24
2017-11-12T08:05:50.830Z,13.25
2017-11-12T08:07:00.908Z,13.28
2017-11-12T08:08:10.980Z,13.24
2017-11-12T08:09:21.096Z,13.2
2017-11-12T08:10:31.525Z,13.16
2017-11-12T08:11:41.596Z,13.21
2017-11-12T08:12:52.004Z,13.17
2017-11-12T08:14:02.084Z,13.16
2017-11-12T08:15:12.161Z,13.28
2017-11-12T08:16:22.231Z,13.28
2017-11-12T08:17:31.974Z,13.19
2017-11-12T08:18:42.389Z,13.17
2017-11-12T08:19:52.813Z,13.17
2017-11-12T08:21:03.230Z,13.17
2017-11-12T08:22:13.317Z,13.14
2017-11-12T08:23:23.714Z,13.16
2017-11-12T08:24:34.153Z,13.19
2017-11-12T08:25:44.571Z,13.25
2017-11-12T08:26:55.005Z,13.29
2017-11-12T08:28:05.085Z,13.31
2017-11-12T08:29:14.845Z,13.27
2017-11-12T08:30:25.309Z,13.24
2017-11-12T08:31:35.377Z,13.19
2017-11-12T08:32:45.786Z,13.06
2017-11-12T08:33:56.453Z,13.09
2017-11-12T08:35:07.144Z,13.06
2017-11-12T08:36:17.563Z,13.06
2017-11-12T08:37:27.655Z,12.89
2017-11-12T08:38:38.091Z,12.91
2017-11-12T08:39:48.538Z,12.83
2017-11-12T08:40:58.929Z,12.91
2017-11-12T08:42:09.011Z,12.89
2017-11-12T08:43:19.139Z,12.89
2017-11-12T08:44:29.229Z,12.88
2017-11-12T08:45:39.740Z,12.76
2017-11-12T08:46:50.149Z,12.73
2017-11-12T08:48:00.582Z,12.78
2017-11-12T08:49:11.005Z,12.74
2017-11-12T08:50:21.433Z,12.74
2017-11-12T08:51:31.540Z,12.81
2017-11-12T08:52:41.711Z,12.78
2017-11-12T08:53:52.109Z,12.81
2017-11-12T08:55:02.242Z,12.78
2017-11-12T08:56:11.312Z,12.89
2017-11-12T08:57:21.779Z,12.89
2017-11-12T08:58:32.197Z,12.91
2017-11-12T08:59:42.615Z,12.92
2017-11-12T09:00:53.033Z,12.86
2017-11-12T09:02:03.122Z,12.89
2017-11-12T09:03:13.197Z,12.95
2017-11-12T09:04:22.946Z,13.03
2017-11-12T09:05:33.381Z,13.11
2017-11-12T09:06:43.800Z,13.14
2017-11-12T09:07:53.548Z,13.16
2017-11-12T09:09:03.619Z,13.25
2017-11-12T09:10:14.022Z,13.32
2017-11-12T09:11:24.109Z,13.37
2017-11-12T09:12:34.272Z,13.35
2017-11-12T09:13:44.352Z,13.51
2017-11-12T09:14:54.114Z,13.53
2017-11-12T09:16:04.534Z,13.5
2017-11-12T09:17:14.630Z,13.57
2017-11-12T09:18:24.440Z,13.57
2017-11-12T09:19:34.868Z,13.63
2017-11-12T09:20:44.614Z,13.63
2017-11-12T09:21:55.072Z,13.72
2017-11-12T09:23:05.155Z,13.78
2017-11-12T09:24:15.557Z,13.79
2017-11-12T09:25:25.993Z,13.9
2017-11-12T09:26:36.107Z,13.84
2017-11-12T09:27:46.990Z,13.91
2017-11-12T09:28:57.548Z,13.93
2017-11-12T09:30:08.177Z,13.94
2017-11-12T09:31:18.286Z,13.88
2017-11-12T09:32:28.486Z,13.94
2017-11-12T09:33:39.885Z,13.88
2017-11-12T09:34:50.597Z,13.88
2017-11-12T09:36:01.071Z,13.88
2017-11-12T09:37:11.188Z,13.91
2017-11-12T09:38:21.689Z,13.94
2017-11-12T09:39:31.808Z,13.84
2017-11-12T09:40:42.259Z,13.94
2017-11-12T09:41:54.902Z,13.88
2017-11-12T09:43:09.398Z,13.91
2017-11-12T09:44:20.773Z,13.88
2017-11-12T09:45:31.234Z,13.93
2017-11-12T09:46:46.373Z,13.86
2017-11-12T09:48:02.973Z,13.79
2017-11-12T09:49:14.541Z,13.78
2017-11-12T09:50:32.973Z,13.73
2017-11-12T09:52:01.566Z,13.72
2017-11-12T09:53:34.411Z,13.76
2017-11-12T09:54:56.593Z,13.83
2017-11-12T09:56:09.016Z,13.88
2017-11-12T09:57:19.474Z,13.84
2017-11-12T09:58:32.508Z,13.86
2017-11-12T09:59:48.784Z,13.95
2017-11-12T10:01:02.731Z,14.03
2017-11-12T10:02:15.770Z,13.95
2017-11-12T10:03:29.262Z,13.97
2017-11-12T10:04:39.376Z,13.95
2017-11-12T10:05:49.836Z,13.84
2017-11-12T10:06:59.969Z,13.76
2017-11-12T10:08:10.066Z,13.76
2017-11-12T10:09:22.950Z,13.73
2017-11-12T10:10:38.606Z,13.62
2017-11-12T10:11:48.729Z,13.68
2017-11-12T10:12:58.505Z,13.76
2017-11-12T10:14:08.639Z,13.78
2017-11-12T10:15:19.068Z,13.75
2017-11-12T10:16:31.657Z,13.87
2017-11-12T10:17:44.779Z,13.93
2017-11-12T10:18:55.308Z,13.91
2017-11-12T10:20:06.241Z,14.09
2017-11-12T10:21:18.781Z,14.16
2017-11-12T10:22:34.981Z,14.12
2017-11-12T10:23:48.387Z,14.15
2017-11-12T10:24:58.897Z,14.24
2017-11-12T10:26:09.393Z,14.2
2017-11-12T10:27:19.848Z,14.2
2017-11-12T10:28:29.963Z,14.19
2017-11-12T10:29:40.153Z,14.28
2017-11-12T10:30:50.637Z,14.31
2017-11-12T10:32:01.140Z,14.31
2017-11-12T10:33:11.598Z,14.39
2017-11-12T10:34:22.113Z,14.27
2017-11-12T10:35:32.234Z,14.38
2017-11-12T10:36:42.027Z,14.45
2017-11-12T10:37:57.158Z,14.49
2017-11-12T10:39:12.183Z,14.46
2017-11-12T10:40:30.795Z,14.45
2017-11-12T10:41:44.503Z,14.56
2017-11-12T10:42:54.630Z,14.49
2017-11-12T10:44:05.089Z,14.51
2017-11-12T10:45:15.544Z,14.49
2017-11-12T10:46:26.098Z,14.53
2017-11-12T10:47:36.613Z,14.49
2017-11-12T10:48:48.648Z,14.49
2017-11-12T10:50:01.693Z,14.67
2017-11-12T10:51:11.838Z,14.59
2017-11-12T10:52:22.351Z,14.61
2017-11-12T10:53:32.128Z,14.74
2017-11-12T10:54:42.251Z,14.59
2017-11-12T10:55:52.694Z,14.6
2017-11-12T10:57:02.464Z,14.53
2017-11-12T10:58:12.949Z,14.71
2017-11-12T10:59:23.115Z,14.53
2017-11-12T11:00:35.724Z,14.59
2017-11-12T11:01:49.420Z,14.61
2017-11-12T11:02:59.889Z,14.52
2017-11-12T11:04:10.015Z,14.53
2017-11-12T11:05:20.518Z,14.61
2017-11-12T11:06:30.702Z,14.66
2017-11-12T11:07:41.167Z,14.51
2017-11-12T11:08:50.962Z,14.44
2017-11-12T11:10:02.317Z,14.33
2017-11-12T11:11:20.277Z,14.2
2017-11-12T11:12:36.235Z,14.15
2017-11-12T11:13:46.675Z,14.13
2017-11-12T11:14:56.506Z,13.95
2017-11-12T11:16:06.968Z,14.01
2017-11-12T11:17:17.081Z,13.91
2017-11-12T11:18:27.523Z,13.9
2017-11-12T11:19:37.646Z,13.86
2017-11-12T11:20:47.763Z,13.84
2017-11-12T11:21:57.938Z,13.91
2017-11-12T11:23:10.951Z,13.91
2017-11-12T11:24:24.357Z,13.93
2017-11-12T11:25:37.626Z,13.95
2017-11-12T11:26:49.807Z,14.08
2017-11-12T11:27:59.932Z,14.02
2017-11-12T11:29:11.208Z,14.13
2017-11-12T11:30:21.803Z,14.2
2017-11-12T11:31:34.984Z,14.16
2017-11-12T11:32:45.449Z,14.16
2017-11-12T11:33:55.572Z,14.15
2017-11-12T11:35:05.700Z,14.15
2017-11-12T11:36:18.345Z,14.03
2017-11-12T11:37:31.018Z,14.06
2017-11-12T11:38:41.481Z,13.93
2017-11-12T11:39:52.490Z,13.93
2017-11-12T11:41:06.671Z,13.91
2017-11-12T11:42:20.658Z,13.9
2017-11-12T11:43:30.843Z,13.78
2017-11-12T11:44:41.337Z,13.72
2017-11-12T11:45:51.784Z,13.58
2017-11-12T11:47:05.053Z,13.66
2017-11-12T11:48:17.700Z,13.53
2017-11-12T11:49:29.008Z,13.4
2017-11-12T11:50:42.863Z,13.37
2017-11-12T11:51:58.074Z,13.45
2017-11-12T11:53:14.583Z,13.5
2017-11-12T11:54:30.486Z,13.48
2017-11-12T11:55:44.402Z,13.54
2017-11-12T11:56:56.307Z,13.5
2017-11-12T11:58:06.430Z,13.44
2017-11-12T11:59:16.929Z,13.42
2017-11-12T12:00:27.055Z,13.35
2017-11-12T12:01:37.508Z,13.27
2017-11-12T12:02:47.640Z,13.16
2017-11-12T12:03:58.103Z,13.01
2017-11-12T12:05:08.270Z,12.95
2017-11-12T12:06:18.708Z,12.94
2017-11-12T12:07:28.809Z,12.84
2017-11-12T12:08:38.247Z,12.81
2017-11-12T12:09:48.710Z,12.88
2017-11-12T12:10:58.559Z,12.8
2017-11-12T12:12:09.019Z,12.74
2017-11-12T12:13:19.477Z,12.84
2017-11-12T12:14:29.934Z,12.66
2017-11-12T12:15:40.381Z,12.69
2017-11-12T12:16:50.520Z,12.61
2017-11-12T12:18:00.628Z,12.52
2017-11-12T12:19:11.070Z,12.34
2017-11-12T12:20:22.666Z,12.25
2017-11-12T12:21:32.799Z,12.23
2017-11-12T12:22:47.757Z,12.26
2017-11-12T12:23:59.000Z,12.15
2017-11-12T12:25:09.439Z,12.15
2017-11-12T12:26:19.559Z,12.23
2017-11-12T12:27:29.672Z,12.07
2017-11-12T12:28:39.439Z,12.08
2017-11-12T12:29:49.888Z,11.89
2017-11-12T12:31:00.332Z,11.91
2017-11-12T12:32:10.440Z,11.98
2017-11-12T12:33:20.881Z,11.89
2017-11-12T12:34:31.340Z,11.82
2017-11-12T12:35:41.452Z,11.86
2017-11-12T12:36:51.896Z,11.75
2017-11-12T12:38:01.646Z,11.78
2017-11-12T12:39:12.080Z,11.79
2017-11-12T12:40:22.178Z,11.78
2017-11-12T12:41:32.634Z,11.73
2017-11-12T12:42:42.405Z,11.75
2017-11-12T12:43:52.878Z,11.88
2017-11-12T12:45:03.326Z,11.94
2017-11-12T12:46:13.166Z,12.04
2017-11-12T12:47:23.594Z,12.16
2017-11-12T12:48:34.045Z,12.2
2017-11-12T12:49:44.468Z,12.2
2017-11-12T12:50:54.246Z,12.23
2017-11-12T12:52:03.684Z,12.25
2017-11-12T12:53:14.134Z,12.25
2017-11-12T12:54:24.589Z,12.19
2017-11-12T12:55:34.708Z,12.26
2017-11-12T12:56:44.483Z,12.2
2017-11-12T12:57:54.637Z,12.19
2017-11-12T12:59:05.065Z,12.22
2017-11-12T13:00:15.502Z,12.13
2017-11-12T13:01:25.981Z,12.15
2017-11-12T13:02:37.283Z,12.1
2017-11-12T13:03:47.100Z,12.13
2017-11-12T13:04:57.187Z,12.13
2017-11-12T13:06:06.961Z,12.15
2017-11-12T13:07:17.048Z,12.1
2017-11-12T13:08:27.159Z,12.03
2017-11-12T13:09:37.299Z,11.95
2017-11-12T13:10:46.738Z,11.95
2017-11-12T13:11:57.200Z,11.86
2017-11-12T13:13:07.648Z,11.78
2017-11-12T13:14:17.751Z,11.82
2017-11-12T13:15:27.875Z,11.7
2017-11-12T13:16:38.299Z,11.61
2017-11-12T13:17:48.419Z,11.53
2017-11-12T13:18:58.169Z,11.39
2017-11-12T13:20:08.592Z,11.34
2017-11-12T13:21:18.697Z,11.26
2017-11-12T13:22:28.784Z,11.27
2017-11-12T13:23:39.237Z,11.21
2017-11-12T13:24:49.354Z,11.15
2017-11-12T13:25:59.794Z,11.1
2017-11-12T13:27:09.954Z,11.03
2017-11-12T13:28:20.401Z,11.05
2017-11-12T13:29:30.490Z,11.02
2017-11-12T13:30:40.240Z,11.09
2017-11-12T13:31:50.329Z,11.08
2017-11-12T13:33:00.798Z,11.05
2017-11-12T13:34:10.895Z,11.02
2017-11-12T13:35:21.011Z,11.06
2017-11-12T13:36:30.760Z,11.03
2017-11-12T13:37:41.197Z,11.06
2017-11-12T13:38:51.306Z,11.05
2017-11-12T13:40:01.406Z,11.03
2017-11-12T13:41:11.507Z,11.06
2017-11-12T13:42:21.257Z,11.05
2017-11-12T13:43:31.715Z,11.12
2017-11-12T13:44:42.158Z,11.15
2017-11-12T13:45:52.244Z,11.05
2017-11-12T13:47:02.668Z,11
2017-11-12T13:48:13.095Z,11.05
2017-11-12T13:49:23.509Z,10.91
2017-11-12T13:50:33.628Z,10.97
2017-11-12T13:51:43.716Z,11
2017-11-12T13:52:53.491Z,10.92
2017-11-12T13:54:03.974Z,10.97
2017-11-12T13:55:14.102Z,10.95
2017-11-12T13:56:24.594Z,10.95
2017-11-12T13:57:34.726Z,11.08
2017-11-12T13:58:45.158Z,11.1
2017-11-12T13:59:55.606Z,11.06
2017-11-12T14:01:06.055Z,10.98
2017-11-12T14:02:16.488Z,10.98
2017-11-12T14:03:27.667Z,10.9
2017-11-12T14:04:37.759Z,10.95
2017-11-12T14:05:48.193Z,10.98
2017-11-12T14:06:58.625Z,10.94
2017-11-12T14:08:09.130Z,10.92
2017-11-12T14:09:19.215Z,10.88
2017-11-12T14:10:28.976Z,10.92
2017-11-12T14:11:39.078Z,10.84
2017-11-12T14:12:49.529Z,10.87
2017-11-12T14:13:59.680Z,10.87
2017-11-12T14:15:10.125Z,10.83
2017-11-12T14:16:20.576Z,10.85
2017-11-12T14:17:31.034Z,10.77
2017-11-12T14:18:41.469Z,10.79
2017-11-12T14:19:51.983Z,10.8
2017-11-12T14:21:02.087Z,10.79
2017-11-12T14:22:12.529Z,10.79
2017-11-12T14:23:21.956Z,10.8
2017-11-12T14:24:32.058Z,10.77
2017-11-12T14:25:42.544Z,10.76
2017-11-12T14:26:52.981Z,10.76
2017-11-12T14:28:02.751Z,10.75
2017-11-12T14:29:13.839Z,10.72
2017-11-12T14:30:24.264Z,10.69
2017-11-12T14:31:34.355Z,10.66
2017-11-12T14:32:44.791Z,10.69
2017-11-12T14:33:55.211Z,10.66
2017-11-12T14:35:05.658Z,10.69
2017-11-12T14:36:16.084Z,10.69
2017-11-12T14:37:26.531Z,10.67
2017-11-12T14:38:36.975Z,10.65
2017-11-12T14:39:47.404Z,10.63
2017-11-12T14:40:57.865Z,10.58
2017-11-12T14:42:07.627Z,10.63
2017-11-12T14:43:18.049Z,10.58
2017-11-12T14:44:28.595Z,10.57
2017-11-12T14:45:39.020Z,10.59
2017-11-12T14:46:49.462Z,10.66
2017-11-12T14:47:59.904Z,10.59
2017-11-12T14:49:10.371Z,10.63
2017-11-12T14:50:20.160Z,10.58
2017-11-12T14:51:30.596Z,10.61
2017-11-12T14:52:40.722Z,10.59
2017-11-12T14:53:51.631Z,10.66
2017-11-12T14:55:01.730Z,10.51
2017-11-12T14:56:11.826Z,10.55
2017-11-12T14:57:22.250Z,10.54
2017-11-12T14:58:32.683Z,10.52
2017-11-12T14:59:42.780Z,10.51
2017-11-12T15:00:52.893Z,10.52
2017-11-12T15:02:03.708Z,10.46
2017-11-12T15:03:14.151Z,10.46
2017-11-12T15:04:24.626Z,10.42
2017-11-12T15:05:34.725Z,10.41
2017-11-12T15:06:45.155Z,10.36
2017-11-12T15:07:55.611Z,10.47
2017-11-12T15:09:05.720Z,10.42
2017-11-12T15:10:16.127Z,10.39
2017-11-12T15:11:26.551Z,10.36
2017-11-12T15:12:36.978Z,10.28
2017-11-12T15:13:47.065Z,10.31
2017-11-12T15:14:57.165Z,10.23
2017-11-12T15:16:07.601Z,10.15
2017-11-12T15:17:17.706Z,10.14
2017-11-12T15:18:28.137Z,10.14
2017-11-12T15:19:38.226Z,10.13
2017-11-12T15:20:48.326Z,10.1
2017-11-12T15:21:58.769Z,10.13
2017-11-12T15:23:09.188Z,10.1
2017-11-12T15:24:19.619Z,9.99
2017-11-12T15:25:29.377Z,10.05
2017-11-12T15:26:39.859Z,9.95
2017-11-12T15:27:49.989Z,9.95
2017-11-12T15:29:00.443Z,9.93
2017-11-12T15:30:10.561Z,9.92
2017-11-12T15:31:20.973Z,9.92
2017-11-12T15:32:31.450Z,9.8
2017-11-12T15:33:41.894Z,9.8
2017-11-12T15:34:51.988Z,9.88
2017-11-12T15:36:02.083Z,9.81
2017-11-12T15:37:12.518Z,9.85
2017-11-12T15:38:22.978Z,9.82
2017-11-12T15:39:32.740Z,9.81
2017-11-12T15:40:43.184Z,9.88
2017-11-12T15:41:53.613Z,9.85